Bennet, Nebraska
Current Conditions -  °F | °C
As of 5:54 AM on Thursday 27 Nov 2014 (Local Time) from KLNK Reporting Station
Broken Clouds Broken Clouds  
Wind Chill:   Ceiling: 7500
Heat Index: 16°   Visibility: 10mi
Dew Point:   Wind: 6mph
Humidity: 74%   Direction: 60°ENE
Pressure: 30.48"   Gusts: NA
Location:  40.68°N, 96.51°W
Report Text: KLNK 271154Z 06005KT 10SM BKN075 M09/M13 A3048 RMK AO2 SLP340 T10891128 11072 21111 56013
Loading
Personal Weather Stations






























Interactive Weather Map New forecast layout! Learn more

10-Day Weather Forecast

Advertisements
Track Severe Weather on mobile